Time;durP1;ratioP1;P1;durP2;ratioP2;P2;SDS_P1;SDS_P2;PMS_P1;PMS_P2;Temp;Humidity;BMP_temperature;BMP_pressure;BME280_temperature;BME280_humidity;BME280_pressure;Samples;Min_cycle;Max_cycle;Signal;HPM_P1;HPM_P2
2023/09/27 00:00:14;;;;;;;9.20;3.70;;;;;;;21.70;30.84;101331.87;108104;1284;21988;-65
2023/09/27 00:02:42;;;;;;;5.90;3.70;;;;;;;21.66;30.84;101329.90;108114;1288;21999;-64
2023/09/27 00:05:10;;;;;;;9.00;3.50;;;;;;;21.61;30.90;101329.55;108162;1288;21984;-65
2023/09/27 00:07:36;;;;;;;9.00;3.90;;;;;;;21.56;31.02;101326.55;108112;1284;21997;-64
2023/09/27 00:10:02;;;;;;;8.10;3.80;;;;;;;21.51;30.99;101328.03;108124;1283;22235;-65
2023/09/27 00:12:28;;;;;;;6.80;3.20;;;;;;;21.44;31.08;101327.23;108166;1285;22000;-58
2023/09/27 00:14:55;;;;;;;9.80;3.60;;;;;;;21.38;31.14;101331.98;108098;1287;21993;-65
2023/09/27 00:17:22;;;;;;;10.60;3.50;;;;;;;21.35;31.15;101329.06;108211;1288;21990;-58
2023/09/27 00:19:47;;;;;;;6.80;3.60;;;;;;;21.33;31.21;101330.40;108142;1287;21994;-58
2023/09/27 00:22:13;;;;;;;10.40;3.90;;;;;;;21.31;31.20;101325.86;108139;1288;21995;-59
2023/09/27 00:24:39;;;;;;;9.60;3.30;;;;;;;21.28;31.23;101325.59;108121;1288;21990;-65
2023/09/27 00:27:05;;;;;;;8.70;3.40;;;;;;;21.26;31.17;101319.63;108165;1277;21993;-59
2023/09/27 00:29:31;;;;;;;9.60;3.40;;;;;;;21.25;31.32;101323.20;108203;1288;21992;-64
2023/09/27 00:31:57;;;;;;;10.10;4.30;;;;;;;21.25;31.32;101321.08;108167;1288;21996;-60
2023/09/27 00:34:22;;;;;;;8.00;3.60;;;;;;;21.25;31.34;101319.48;108118;1288;21995;-60
2023/09/27 00:36:49;;;;;;;7.50;3.60;;;;;;;21.25;31.30;101316.24;108111;1288;21990;-61
2023/09/27 00:39:15;;;;;;;8.50;3.90;;;;;;;21.26;31.43;101313.91;108111;1288;22451;-67
2023/09/27 00:41:40;;;;;;;7.10;3.30;;;;;;;21.26;31.44;101313.92;108104;1288;21992;-61
2023/09/27 00:44:06;;;;;;;8.90;3.70;;;;;;;21.26;31.46;101313.71;108148;1288;21998;-59
2023/09/27 00:46:32;;;;;;;10.20;3.60;;;;;;;21.25;31.43;101312.16;107879;1288;21986;-59
2023/09/27 00:48:57;;;;;;;11.20;3.80;;;;;;;21.24;31.57;101311.27;108164;1286;21996;-66
2023/09/27 00:51:23;;;;;;;10.60;3.60;;;;;;;21.25;31.68;101311.61;107866;1280;21995;-60
2023/09/27 00:53:48;;;;;;;8.90;3.40;;;;;;;21.27;31.60;101312.98;108105;1288;21995;-65
2023/09/27 00:56:14;;;;;;;8.20;3.00;;;;;;;21.28;31.59;101309.38;108112;1283;21994;-59
2023/09/27 00:58:39;;;;;;;7.90;3.70;;;;;;;21.29;31.63;101309.52;108168;1288;22035;-59
2023/09/27 01:01:06;;;;;;;9.60;3.60;;;;;;;21.30;31.60;101312.86;107808;1288;21995;-66
2023/09/27 01:03:32;;;;;;;6.80;3.70;;;;;;;21.30;31.67;101307.84;108111;1286;22068;-59
2023/09/27 01:05:57;;;;;;;7.20;3.60;;;;;;;21.31;31.77;101304.77;107852;1284;21995;-67
2023/09/27 01:08:23;;;;;;;9.00;3.90;;;;;;;21.31;31.66;101307.08;107974;1288;22002;-67
2023/09/27 01:10:49;;;;;;;9.60;4.40;;;;;;;21.32;31.57;101311.15;108117;1286;21997;-66
2023/09/27 01:13:14;;;;;;;10.30;3.60;;;;;;;21.32;31.72;101305.80;107921;1283;22004;-59
2023/09/27 01:15:40;;;;;;;6.20;3.10;;;;;;;21.31;31.67;101302.98;106591;1284;1003155;-66
2023/09/27 01:18:06;;;;;;;8.00;3.70;;;;;;;21.32;31.73;101302.41;108109;1284;21990;-59
2023/09/27 01:20:35;;;;;;;7.50;3.80;;;;;;;21.32;31.74;101303.32;108087;1287;21990;-59
2023/09/27 01:23:01;;;;;;;8.90;3.50;;;;;;;21.31;31.77;101305.67;108122;1280;21990;-57
2023/09/27 01:25:31;;;;;;;9.20;4.40;;;;;;;21.31;31.76;101302.28;108107;1288;21998;-65
2023/09/27 01:28:02;;;;;;;13.40;3.50;;;;;;;21.31;31.83;101301.02;108102;1286;21996;-57
2023/09/27 01:30:33;;;;;;;8.10;3.70;;;;;;;21.32;31.84;101300.64;108139;1288;22001;-57
2023/09/27 01:33:00;;;;;;;9.60;3.40;;;;;;;21.31;31.80;101301.04;108133;1288;22461;-58
2023/09/27 01:35:26;;;;;;;7.90;3.50;;;;;;;21.31;31.89;101300.33;108127;1288;22083;-57
2023/09/27 01:37:51;;;;;;;8.40;3.90;;;;;;;21.30;31.93;101297.70;108135;1288;21998;-65
2023/09/27 01:40:18;;;;;;;10.10;3.80;;;;;;;21.29;31.86;101300.95;108058;1283;21989;-65
2023/09/27 01:42:44;;;;;;;7.70;3.60;;;;;;;21.28;31.92;101303.10;108097;1277;22003;-65
2023/09/27 01:45:12;;;;;;;12.70;3.90;;;;;;;21.28;32.00;101304.00;108136;1286;22070;-64
2023/09/27 01:47:38;;;;;;;10.10;3.70;;;;;;;21.27;31.97;101302.79;108107;1286;22002;-64
2023/09/27 01:50:07;;;;;;;9.60;3.30;;;;;;;21.26;31.97;101301.93;108145;1287;21994;-58
2023/09/27 01:52:32;;;;;;;8.80;3.50;;;;;;;21.26;32.07;101300.68;108192;1288;22027;-65
2023/09/27 01:54:58;;;;;;;6.40;3.50;;;;;;;21.26;32.04;101303.54;108071;1288;22103;-59
2023/09/27 01:57:23;;;;;;;9.60;3.70;;;;;;;21.25;32.01;101302.16;108073;1288;22003;-58
2023/09/27 01:59:49;;;;;;;9.40;3.70;;;;;;;21.24;31.98;101307.02;108084;1288;21993;-60
2023/09/27 02:02:14;;;;;;;7.80;3.40;;;;;;;21.23;32.03;101308.46;108107;1283;21986;-58
2023/09/27 02:04:40;;;;;;;9.00;3.70;;;;;;;21.23;32.03;101307.94;108028;1276;21992;-58
2023/09/27 02:07:06;;;;;;;8.80;3.70;;;;;;;21.23;32.17;101309.55;108024;1285;21990;-58
2023/09/27 02:09:32;;;;;;;7.60;3.50;;;;;;;21.23;32.06;101310.11;107980;1288;21994;-58
2023/09/27 02:11:57;;;;;;;12.40;3.80;;;;;;;21.22;32.05;101308.55;108006;1288;21995;-59
2023/09/27 02:14:23;;;;;;;6.70;3.60;;;;;;;21.20;32.12;101313.25;107973;1288;22002;-66
2023/09/27 02:16:48;;;;;;;7.80;3.40;;;;;;;21.18;32.07;101317.09;107950;1286;23703;-58
2023/09/27 02:19:14;;;;;;;13.60;3.80;;;;;;;21.16;32.07;101316.10;107347;1281;1002994;-58
2023/09/27 02:21:39;;;;;;;11.40;3.60;;;;;;;21.14;32.08;101317.97;108108;1286;21962;-65
2023/09/27 02:24:09;;;;;;;15.60;4.40;;;;;;;21.11;32.17;101316.65;108096;1281;22004;-57
2023/09/27 02:26:34;;;;;;;7.90;3.80;;;;;;;21.10;32.24;101314.22;108134;1288;22004;-59
2023/09/27 02:29:00;;;;;;;6.40;3.60;;;;;;;21.08;32.19;101317.15;108115;1287;22069;-64
2023/09/27 02:31:26;;;;;;;12.00;3.90;;;;;;;21.05;32.28;101318.33;108105;1280;22577;-64
2023/09/27 02:33:51;;;;;;;7.90;4.00;;;;;;;21.03;32.24;101319.67;108082;1283;22099;-65
2023/09/27 02:36:17;;;;;;;9.40;4.30;;;;;;;21.02;32.19;101320.81;108082;1288;22004;-57
2023/09/27 02:38:43;;;;;;;10.50;4.10;;;;;;;21.00;32.27;101316.77;108082;1288;22001;-57
2023/09/27 02:41:08;;;;;;;7.90;3.80;;;;;;;20.97;32.35;101316.70;108068;1280;21987;-65
2023/09/27 02:43:34;;;;;;;13.00;4.10;;;;;;;20.95;32.43;101315.02;108059;1288;21994;-60
2023/09/27 02:46:00;;;;;;;8.90;4.10;;;;;;;20.94;32.42;101319.34;108042;1287;21997;-59
2023/09/27 02:48:26;;;;;;;9.50;3.80;;;;;;;20.93;32.43;101322.41;108106;1283;21996;-59
2023/09/27 02:50:52;;;;;;;9.30;3.90;;;;;;;20.92;32.49;101324.06;108037;1288;21991;-58
2023/09/27 02:53:18;;;;;;;11.70;4.10;;;;;;;20.90;32.43;101327.70;108110;1283;21992;-58
2023/09/27 02:55:44;;;;;;;6.90;3.80;;;;;;;20.88;32.48;101326.00;108156;1288;21990;-58
2023/09/27 02:58:10;;;;;;;6.20;4.00;;;;;;;20.86;32.50;101329.48;108098;1284;21988;-57
2023/09/27 03:00:36;;;;;;;6.30;3.90;;;;;;;20.83;32.58;101331.36;108105;1288;21999;-63
2023/09/27 03:03:03;;;;;;;8.00;4.10;;;;;;;20.80;32.56;101331.66;108065;1280;21986;-60
2023/09/27 03:05:30;;;;;;;6.70;3.50;;;;;;;20.76;32.61;101334.81;108079;1286;23736;-57
2023/09/27 03:07:57;;;;;;;7.50;4.20;;;;;;;20.73;32.58;101333.71;108159;1280;21995;-62
2023/09/27 03:10:22;;;;;;;9.50;4.50;;;;;;;20.71;32.67;101340.23;108104;1288;21994;-65
2023/09/27 03:12:48;;;;;;;8.00;3.80;;;;;;;20.68;32.71;101342.83;108017;1277;21988;-66
2023/09/27 03:15:14;;;;;;;14.60;4.10;;;;;;;20.64;32.60;101341.70;108058;1288;21993;-65
2023/09/27 03:17:41;;;;;;;10.50;4.00;;;;;;;20.62;32.65;101341.23;108052;1288;22102;-58
2023/09/27 03:20:09;;;;;;;8.60;3.80;;;;;;;20.61;32.73;101341.11;108052;1287;21996;-58
2023/09/27 03:22:35;;;;;;;9.20;3.80;;;;;;;20.59;32.67;101341.55;108111;1286;24332;-58
2023/09/27 03:25:00;;;;;;;10.20;4.70;;;;;;;20.58;32.85;101343.55;108134;1288;22038;-65
2023/09/27 03:27:26;;;;;;;10.70;4.40;;;;;;;20.57;32.85;101341.63;108045;1288;21992;-58
2023/09/27 03:29:52;;;;;;;11.40;4.10;;;;;;;20.55;32.87;101339.55;108044;1287;21995;-58
2023/09/27 03:32:19;;;;;;;9.60;4.50;;;;;;;20.54;32.92;101335.67;108106;1280;21990;-58
2023/09/27 03:34:46;;;;;;;12.20;3.80;;;;;;;20.53;32.86;101329.16;108110;1286;22032;-58
2023/09/27 03:37:11;;;;;;;8.60;4.10;;;;;;;20.51;32.87;101329.38;108093;1277;24349;-65
2023/09/27 03:39:37;;;;;;;9.90;4.00;;;;;;;20.48;32.98;101325.73;108091;1280;21992;-59
2023/09/27 03:42:03;;;;;;;12.50;4.30;;;;;;;20.46;32.87;101322.42;108096;1287;22024;-58
2023/09/27 03:44:29;;;;;;;11.20;4.30;;;;;;;20.43;33.03;101322.73;108132;1277;21991;-65
2023/09/27 03:46:55;;;;;;;10.80;4.00;;;;;;;20.40;33.09;101328.00;108098;1287;22089;-66
2023/09/27 03:49:21;;;;;;;12.00;4.20;;;;;;;20.37;33.12;101330.08;108154;1287;22050;-59
2023/09/27 03:51:47;;;;;;;11.20;3.90;;;;;;;20.33;33.09;101327.04;107859;1284;21992;-65
2023/09/27 03:54:12;;;;;;;22.00;5.10;;;;;;;20.30;33.22;101328.41;108147;1282;22002;-57
2023/09/27 03:56:38;;;;;;;16.00;5.50;;;;;;;20.27;33.47;101328.70;108103;1288;21963;-59
2023/09/27 03:59:03;;;;;;;13.20;5.40;;;;;;;20.25;33.37;101331.78;108072;1288;22462;-66
2023/09/27 04:01:30;;;;;;;22.20;8.90;;;;;;;20.26;33.54;101333.71;108112;1288;22047;-65
2023/09/27 04:03:57;;;;;;;23.90;8.10;;;;;;;20.30;33.57;101335.70;108099;1283;21991;-66
2023/09/27 04:06:24;;;;;;;23.80;9.60;;;;;;;20.31;33.55;101336.55;108093;1288;21996;-58
2023/09/27 04:08:51;;;;;;;27.30;10.80;;;;;;;20.32;33.56;101339.15;108122;1288;23063;-58
2023/09/27 04:11:16;;;;;;;25.50;10.80;;;;;;;20.36;33.56;101342.60;108163;1283;21989;-59
2023/09/27 04:13:42;;;;;;;26.80;10.70;;;;;;;20.37;33.59;101341.65;108124;1280;21991;-57
2023/09/27 04:16:08;;;;;;;25.60;10.80;;;;;;;20.39;33.58;101342.50;106627;1285;1007232;-65
2023/09/27 04:18:33;;;;;;;32.30;13.30;;;;;;;20.42;33.62;101345.60;108099;1280;21992;-58
2023/09/27 04:21:08;;;;;;;31.10;13.20;;;;;;;20.44;33.66;101344.45;108095;1281;22003;-57
2023/09/27 04:23:34;;;;;;;34.30;14.10;;;;;;;20.47;33.70;101350.02;108140;1288;21992;-57
2023/09/27 04:26:00;;;;;;;36.00;15.40;;;;;;;20.50;33.70;101347.59;108116;1288;22028;-65
2023/09/27 04:28:26;;;;;;;35.70;14.00;;;;;;;20.55;33.72;101346.85;108064;1280;21992;-64
2023/09/27 04:30:52;;;;;;;26.40;11.10;;;;;;;20.58;33.69;101347.48;108139;1287;21992;-65
2023/09/27 04:33:18;;;;;;;20.60;7.70;;;;;;;20.62;33.74;101347.67;108091;1283;21995;-64
2023/09/27 04:35:44;;;;;;;19.00;7.80;;;;;;;20.66;33.68;101347.34;108097;1286;22074;-58
2023/09/27 04:38:10;;;;;;;19.00;7.80;;;;;;;20.71;33.72;101347.33;108093;1288;22101;-57
2023/09/27 04:40:36;;;;;;;24.20;7.00;;;;;;;20.75;33.67;101347.17;108177;1288;21992;-57
2023/09/27 04:43:02;;;;;;;17.20;6.60;;;;;;;20.80;33.67;101348.23;108149;1280;21993;-64
2023/09/27 04:45:27;;;;;;;17.20;6.70;;;;;;;20.90;33.66;101347.15;108118;1288;21998;-56
2023/09/27 04:47:53;;;;;;;25.50;6.40;;;;;;;21.00;33.58;101346.53;108118;1284;21999;-64
2023/09/27 04:50:19;;;;;;;12.40;5.40;;;;;;;21.08;33.62;101346.05;108086;1283;22373;-64
2023/09/27 04:52:44;;;;;;;16.90;5.90;;;;;;;21.14;33.54;101344.73;108097;1288;22005;-65
2023/09/27 04:55:10;;;;;;;11.40;5.20;;;;;;;21.20;33.60;101351.27;108052;1288;23467;-56
2023/09/27 04:57:36;;;;;;;16.70;5.30;;;;;;;21.28;33.66;101354.16;108110;1285;21993;-57
2023/09/27 05:00:03;;;;;;;21.00;6.10;;;;;;;21.36;33.61;101355.95;108112;1287;22032;-65
2023/09/27 05:02:28;;;;;;;11.90;5.40;;;;;;;21.45;33.62;101351.48;108132;1288;21995;-57
2023/09/27 05:04:54;;;;;;;13.00;5.30;;;;;;;21.55;33.60;101352.69;108056;1288;21989;-56
2023/09/27 05:07:20;;;;;;;23.00;6.40;;;;;;;21.64;33.61;101351.41;108135;1288;21988;-56
2023/09/27 05:09:46;;;;;;;15.00;5.60;;;;;;;21.74;33.66;101350.08;108132;1288;21991;-56
2023/09/27 05:12:12;;;;;;;13.90;5.00;;;;;;;21.85;33.58;101348.92;108122;1288;22454;-57
2023/09/27 05:14:38;;;;;;;15.20;4.80;;;;;;;21.95;33.50;101346.83;108129;1288;21992;-64
2023/09/27 05:17:04;;;;;;;12.80;4.50;;;;;;;22.07;33.43;101353.85;108084;1288;21989;-63
2023/09/27 05:19:30;;;;;;;13.60;5.30;;;;;;;22.17;33.40;101351.60;108096;1287;21989;-56
2023/09/27 05:21:55;;;;;;;17.10;5.60;;;;;;;22.27;33.47;101352.20;108181;1288;22038;-64
2023/09/27 05:24:21;;;;;;;13.20;5.60;;;;;;;22.40;33.33;101348.41;108096;1288;22243;-55
2023/09/27 05:26:47;;;;;;;11.50;5.40;;;;;;;22.30;33.62;101347.45;108101;1281;21995;-59
2023/09/27 05:29:13;;;;;;;10.90;4.90;;;;;;;22.32;33.65;101347.52;108098;1288;21993;-64
2023/09/27 05:31:48;;;;;;;11.40;5.30;;;;;;;22.43;33.65;101347.38;108130;1288;21998;-64
2023/09/27 05:34:13;;;;;;;12.00;5.20;;;;;;;22.55;33.53;101348.09;108126;1288;21992;-56
2023/09/27 05:36:40;;;;;;;13.90;5.80;;;;;;;22.67;33.57;101347.90;108113;1288;21952;-56
2023/09/27 05:39:08;;;;;;;12.40;5.30;;;;;;;22.80;33.48;101345.66;108100;1288;22012;-64
2023/09/27 05:41:35;;;;;;;12.40;4.70;;;;;;;22.93;33.44;101339.84;108092;1288;21998;-63
2023/09/27 05:44:00;;;;;;;13.30;5.20;;;;;;;23.06;33.35;101338.10;108112;1288;22014;-64
2023/09/27 05:46:26;;;;;;;9.20;5.80;;;;;;;23.20;33.24;101338.52;108115;1288;21990;-64
2023/09/27 05:48:53;;;;;;;13.30;6.60;;;;;;;23.35;33.23;101335.11;108117;1287;21990;-65
2023/09/27 05:51:18;;;;;;;13.70;5.40;;;;;;;23.72;32.74;101334.63;108152;1288;22464;-65
2023/09/27 05:53:46;;;;;;;11.60;5.90;;;;;;;23.93;32.48;101331.92;108112;1288;21993;-65
2023/09/27 05:56:13;;;;;;;9.70;5.00;;;;;;;24.10;32.32;101337.11;107891;1283;21981;-64
2023/09/27 05:58:39;;;;;;;10.00;5.30;;;;;;;24.27;32.36;101340.86;108080;1288;21990;-64
2023/09/27 06:01:07;;;;;;;13.10;5.20;;;;;;;24.45;32.29;101336.31;108121;1288;22002;-57
2023/09/27 06:03:35;;;;;;;14.10;5.60;;;;;;;24.62;32.20;101338.23;108095;1283;22026;-56
2023/09/27 06:06:03;;;;;;;17.30;5.10;;;;;;;24.78;32.08;101338.23;108111;1287;21996;-65
2023/09/27 06:08:30;;;;;;;11.40;5.40;;;;;;;24.94;31.90;101341.64;107999;1288;22351;-56
2023/09/27 06:10:56;;;;;;;9.60;5.00;;;;;;;25.10;31.73;101342.19;108131;1283;22034;-65
2023/09/27 06:13:23;;;;;;;11.60;5.60;;;;;;;25.27;31.78;101336.34;108160;1288;21993;-65
2023/09/27 06:15:49;;;;;;;9.50;5.00;;;;;;;25.45;31.68;101332.04;108134;1286;21994;-57
2023/09/27 06:18:15;;;;;;;13.70;5.90;;;;;;;25.65;31.69;101330.86;108094;1288;21998;-56
2023/09/27 06:20:41;;;;;;;9.00;5.60;;;;;;;25.86;31.61;101329.40;108108;1280;23742;-57
2023/09/27 06:23:09;;;;;;;9.60;5.40;;;;;;;26.07;31.43;101329.03;108167;1288;21992;-57
2023/09/27 06:25:35;;;;;;;14.30;5.60;;;;;;;26.27;31.27;101327.96;108108;1280;22000;-65
2023/09/27 06:28:01;;;;;;;11.20;4.90;;;;;;;26.47;31.12;101324.77;108086;1288;22217;-57
2023/09/27 06:30:26;;;;;;;8.20;5.50;;;;;;;26.64;31.01;101323.24;108222;1288;21993;-58
2023/09/27 06:32:52;;;;;;;9.90;5.00;;;;;;;26.82;30.75;101324.84;108159;1283;21993;-58
2023/09/27 06:35:18;;;;;;;11.20;5.10;;;;;;;27.00;30.65;101325.11;108138;1288;22001;-57
2023/09/27 06:37:48;;;;;;;14.90;5.20;;;;;;;27.13;30.54;101325.66;108098;1288;22003;-66
2023/09/27 06:40:23;;;;;;;10.30;5.20;;;;;;;27.27;30.46;101328.88;108123;1288;22044;-66
2023/09/27 06:42:49;;;;;;;12.70;5.20;;;;;;;27.44;30.45;101332.09;108118;1288;21992;-57
2023/09/27 06:45:15;;;;;;;11.40;5.40;;;;;;;27.61;30.31;101333.83;108089;1288;22559;-64
2023/09/27 06:47:41;;;;;;;10.20;5.30;;;;;;;27.79;30.03;101337.82;108153;1288;22280;-64
2023/09/27 06:50:08;;;;;;;14.40;5.30;;;;;;;27.97;29.92;101336.20;108098;1287;21989;-65
2023/09/27 06:52:34;;;;;;;9.70;5.10;;;;;;;28.13;29.82;101335.08;108142;1276;21998;-65
2023/09/27 06:55:00;;;;;;;12.50;4.80;;;;;;;28.27;29.71;101333.34;108172;1288;22005;-60
2023/09/27 06:57:26;;;;;;;12.10;5.00;;;;;;;28.45;29.90;101337.65;108093;1288;21993;-65
2023/09/27 06:59:51;;;;;;;11.30;4.80;;;;;;;28.71;29.88;101332.19;108070;1286;22004;-64
2023/09/27 07:02:17;;;;;;;11.80;4.80;;;;;;;28.97;29.70;101337.23;108084;1288;22018;-57
2023/09/27 07:04:43;;;;;;;6.90;4.40;;;;;;;29.24;29.53;101335.05;108114;1287;21985;-65
2023/09/27 07:07:12;;;;;;;14.70;5.00;;;;;;;29.53;29.33;101332.69;108102;1288;21987;-57
2023/09/27 07:09:37;;;;;;;9.20;4.80;;;;;;;29.81;29.33;101333.04;108121;1288;22008;-57
2023/09/27 07:12:04;;;;;;;10.10;4.50;;;;;;;30.07;29.20;101330.11;108133;1288;21999;-57
2023/09/27 07:14:29;;;;;;;14.00;4.60;;;;;;;30.33;28.93;101331.16;108157;1283;21995;-57
2023/09/27 07:16:55;;;;;;;8.00;4.10;;;;;;;30.54;28.65;101333.42;108104;1277;21995;-65
2023/09/27 07:19:21;;;;;;;11.30;4.90;;;;;;;30.75;28.63;101334.80;108112;1288;21995;-57
2023/09/27 07:21:47;;;;;;;9.10;4.60;;;;;;;30.94;28.34;101337.17;108106;1287;22002;-57
2023/09/27 07:24:13;;;;;;;9.50;4.80;;;;;;;31.07;28.34;101340.98;108073;1283;21989;-57
2023/09/27 07:26:41;;;;;;;10.50;5.00;;;;;;;31.23;28.25;101338.80;108079;1286;22026;-66
2023/09/27 07:29:07;;;;;;;9.30;4.60;;;;;;;31.40;28.01;101335.56;108085;1288;21992;-65
2023/09/27 07:31:33;;;;;;;8.80;4.50;;;;;;;31.54;27.88;101337.23;108111;1278;22467;-58
2023/09/27 07:33:59;;;;;;;11.10;5.00;;;;;;;31.69;27.89;101339.95;108126;1287;21990;-66
2023/09/27 07:36:24;;;;;;;12.90;5.00;;;;;;;31.80;27.75;101341.02;108084;1286;21992;-66
2023/09/27 07:38:51;;;;;;;11.20;4.50;;;;;;;31.97;27.64;101337.92;108137;1278;22396;-58
2023/09/27 07:41:17;;;;;;;10.30;5.00;;;;;;;32.16;27.43;101338.95;108070;1288;22102;-66
2023/09/27 07:43:43;;;;;;;11.40;4.20;;;;;;;32.33;27.42;101338.73;108129;1288;22032;-58
2023/09/27 07:46:09;;;;;;;11.80;4.30;;;;;;;32.53;27.35;101339.73;108132;1284;23041;-66
2023/09/27 07:48:39;;;;;;;9.10;4.70;;;;;;;32.65;27.12;101337.73;108105;1288;22042;-60
2023/09/27 07:51:18;;;;;;;8.40;4.10;;;;;;;32.79;27.13;101330.60;108075;1288;21995;-66
2023/09/27 07:53:44;;;;;;;7.60;4.30;;;;;;;32.98;26.95;101331.25;108122;1288;21995;-66
2023/09/27 07:56:17;;;;;;;9.20;4.30;;;;;;;33.17;26.86;101332.39;108165;1283;21997;-65
2023/09/27 07:58:44;;;;;;;13.50;5.00;;;;;;;33.36;26.54;101330.66;108200;1287;22002;-58
2023/09/27 08:01:12;;;;;;;12.60;5.30;;;;;;;33.46;26.44;101332.23;108089;1280;21988;-58
2023/09/27 08:03:38;;;;;;;11.70;5.10;;;;;;;33.54;26.26;101330.38;108126;1288;22002;-66
2023/09/27 08:06:04;;;;;;;12.30;4.90;;;;;;;33.66;26.32;101328.20;108140;1287;22023;-58
2023/09/27 08:08:30;;;;;;;13.10;5.00;;;;;;;33.75;26.12;101330.22;108151;1286;22025;-57
2023/09/27 08:10:57;;;;;;;8.40;5.00;;;;;;;33.88;26.05;101326.83;108125;1277;22044;-65
2023/09/27 08:13:22;;;;;;;12.70;4.90;;;;;;;34.05;25.80;101324.67;108139;1288;21995;-66
2023/09/27 08:15:51;;;;;;;12.20;4.20;;;;;;;34.13;25.81;101322.77;108127;1288;21989;-58
2023/09/27 08:18:17;;;;;;;8.90;4.50;;;;;;;34.18;25.63;101321.73;107875;1286;21998;-65
2023/09/27 08:20:43;;;;;;;13.80;4.80;;;;;;;34.24;25.55;101318.94;108051;1288;21999;-57
2023/09/27 08:23:09;;;;;;;10.30;4.00;;;;;;;34.36;25.49;101316.86;108127;1283;22028;-66
2023/09/27 08:25:37;;;;;;;7.30;4.10;;;;;;;34.52;25.32;101312.93;108149;1288;22000;-58
2023/09/27 08:28:05;;;;;;;7.80;3.90;;;;;;;34.67;25.34;101309.06;108127;1288;22022;-65
2023/09/27 08:30:31;;;;;;;7.70;3.20;;;;;;;34.83;25.28;101305.52;108148;1286;21993;-66
2023/09/27 08:32:57;;;;;;;8.30;3.40;;;;;;;34.98;25.27;101311.42;108132;1283;22014;-65
2023/09/27 08:35:23;;;;;;;5.60;3.00;;;;;;;35.11;25.16;101307.75;108084;1288;21994;-65
2023/09/27 08:37:49;;;;;;;6.40;3.00;;;;;;;35.27;24.94;101308.13;108140;1283;21990;-65
2023/09/27 08:40:15;;;;;;;10.10;3.10;;;;;;;35.43;24.79;101304.98;108118;1288;21992;-58
2023/09/27 08:42:41;;;;;;;12.30;3.10;;;;;;;35.60;24.83;101303.25;108221;1288;22462;-65
2023/09/27 08:45:11;;;;;;;10.40;3.40;;;;;;;35.79;24.60;101302.59;108132;1288;21992;-58
2023/09/27 08:47:39;;;;;;;9.30;3.00;;;;;;;35.92;24.41;101300.09;108072;1283;21995;-59
2023/09/27 08:50:05;;;;;;;6.90;2.60;;;;;;;36.01;24.30;101301.39;108069;1285;22084;-57
2023/09/27 08:52:31;;;;;;;7.90;3.10;;;;;;;36.11;24.22;101296.64;108099;1283;21965;-65
2023/09/27 08:54:57;;;;;;;9.20;2.80;;;;;;;36.22;23.97;101293.89;108066;1288;22000;-66
2023/09/27 08:57:28;;;;;;;9.70;3.10;;;;;;;36.26;24.00;101294.86;108073;1284;22003;-66
2023/09/27 08:59:55;;;;;;;7.00;2.90;;;;;;;36.31;24.03;101295.30;108029;1288;21993;-66
2023/09/27 09:02:21;;;;;;;7.90;3.10;;;;;;;36.38;23.81;101294.33;107736;1288;21999;-67
2023/09/27 09:04:47;;;;;;;5.60;2.50;;;;;;;36.45;23.57;101292.13;108070;1288;21989;-66
2023/09/27 09:07:13;;;;;;;9.60;3.40;;;;;;;36.49;23.59;101292.09;107790;1280;21998;-65
2023/09/27 09:09:40;;;;;;;6.50;3.00;;;;;;;36.54;23.42;101284.63;107960;1288;22049;-64
2023/09/27 09:12:09;;;;;;;14.70;3.10;;;;;;;36.58;23.50;101283.79;107972;1288;21994;-57
2023/09/27 09:14:49;;;;;;;7.60;3.70;;;;;;;36.69;23.26;101278.92;108127;1288;21992;-67
2023/09/27 09:17:18;;;;;;;9.70;3.30;;;;;;;36.87;23.20;101277.86;108082;1288;22011;-66
2023/09/27 09:20:16;;;;;;;5.60;2.90;;;;;;;36.94;23.11;101273.34;108129;1288;22000;-59
2023/09/27 09:22:45;;;;;;;7.10;2.50;;;;;;;37.00;23.02;101274.09;107837;1287;22461;-66
2023/09/27 09:25:11;;;;;;;5.30;2.50;;;;;;;37.10;23.02;101275.73;108173;1276;21991;-58
2023/09/27 09:27:37;;;;;;;4.90;1.90;;;;;;;37.16;22.87;101271.61;107899;1288;23618;-57
2023/09/27 09:30:06;;;;;;;6.30;1.90;;;;;;;37.20;22.79;101267.54;108114;1283;21997;-58
2023/09/27 09:32:33;;;;;;;8.40;2.00;;;;;;;37.25;22.76;101266.80;108155;1283;22003;-58
2023/09/27 09:34:58;;;;;;;7.40;2.30;;;;;;;37.32;22.72;101272.77;108142;1286;22011;-58
2023/09/27 09:37:33;;;;;;;3.60;1.90;;;;;;;37.40;22.56;101265.63;108110;1286;22010;-58
2023/09/27 09:40:14;;;;;;;5.60;2.20;;;;;;;37.48;22.46;101263.24;108044;1283;21992;-67
2023/09/27 09:42:43;;;;;;;8.70;2.30;;;;;;;37.59;22.36;101259.89;108116;1282;23065;-66
2023/09/27 09:45:12;;;;;;;8.20;2.60;;;;;;;37.67;22.29;101258.63;108094;1286;21986;-66
2023/09/27 09:47:39;;;;;;;3.50;2.00;;;;;;;37.72;22.20;101259.09;108174;1288;21996;-65
2023/09/27 09:50:06;;;;;;;8.50;1.90;;;;;;;37.81;21.99;101255.43;108105;1288;21995;-65
2023/09/27 09:52:35;;;;;;;9.40;2.20;;;;;;;37.89;22.00;101250.36;108112;1288;21992;-65
2023/09/27 09:55:02;;;;;;;7.40;1.90;;;;;;;37.97;21.87;101244.55;108144;1280;22001;-61
2023/09/27 09:57:35;;;;;;;12.10;2.30;;;;;;;38.04;21.86;101249.40;108155;1288;21997;-58
2023/09/27 10:00:30;;;;;;;6.40;1.90;;;;;;;38.12;21.70;101245.91;108042;1288;21995;-58
2023/09/27 10:03:02;;;;;;;5.50;1.90;;;;;;;38.17;21.57;101240.88;108129;1288;22049;-58
2023/09/27 10:05:32;;;;;;;9.00;1.80;;;;;;;38.27;21.42;101236.06;108119;1288;21994;-66
2023/09/27 10:07:58;;;;;;;6.10;1.90;;;;;;;38.30;21.23;101240.35;108061;1288;22444;-57
2023/09/27 10:10:24;;;;;;;5.30;1.80;;;;;;;38.25;21.17;101243.77;107855;1288;22003;-66
2023/09/27 10:12:51;;;;;;;7.50;2.00;;;;;;;38.23;21.20;101244.20;108114;1288;21990;-66
2023/09/27 10:15:21;;;;;;;6.20;1.70;;;;;;;38.23;21.11;101238.83;108091;1288;22024;-59
2023/09/27 10:17:47;;;;;;;11.30;2.60;;;;;;;38.27;20.92;101239.77;108144;1288;22175;-66
2023/09/27 10:20:14;;;;;;;8.50;2.10;;;;;;;38.31;20.90;101238.21;108139;1286;21995;-67
2023/09/27 10:22:44;;;;;;;8.80;2.30;;;;;;;38.34;20.92;101234.72;108191;1288;22027;-58
2023/09/27 10:25:28;;;;;;;6.30;2.20;;;;;;;38.35;20.78;101232.23;108215;1280;22001;-57
2023/09/27 10:28:15;;;;;;;11.30;2.80;;;;;;;38.36;20.90;101231.34;107979;1288;21992;-58
2023/09/27 10:30:40;;;;;;;6.50;2.40;;;;;;;38.44;20.95;101226.42;108137;1288;22166;-58
2023/09/27 10:33:15;;;;;;;7.70;2.00;;;;;;;38.58;20.87;101220.79;108124;1288;22024;-59
2023/09/27 10:36:12;;;;;;;5.40;2.10;;;;;;;38.76;20.86;101223.57;108130;1288;22108;-68
2023/09/27 10:38:41;;;;;;;13.70;2.60;;;;;;;38.85;20.71;101224.49;108113;1286;22000;-66
2023/09/27 10:41:07;;;;;;;9.00;2.40;;;;;;;38.87;20.60;101223.40;108189;1288;23647;-65
2023/09/27 10:43:35;;;;;;;8.30;1.90;;;;;;;38.92;20.60;101215.05;108137;1283;21994;-66
2023/09/27 10:46:04;;;;;;;5.00;1.90;;;;;;;38.97;20.44;101211.33;108078;1288;21998;-58
2023/09/27 10:48:37;;;;;;;6.20;1.80;;;;;;;39.01;20.43;101207.20;108081;1283;22052;-58
2023/09/27 10:51:03;;;;;;;7.60;2.30;;;;;;;39.04;20.42;101203.73;108070;1288;22195;-59
2023/09/27 10:53:29;;;;;;;6.40;1.90;;;;;;;39.05;20.32;101207.13;108129;1288;21998;-58
2023/09/27 10:55:55;;;;;;;9.00;2.20;;;;;;;39.06;20.16;101207.70;107910;1288;21997;-66
2023/09/27 10:58:21;;;;;;;6.60;1.90;;;;;;;39.06;20.12;101202.48;108049;1287;21993;-66
2023/09/27 11:00:56;;;;;;;9.50;2.50;;;;;;;39.09;20.03;101197.89;108091;1288;21992;-66
2023/09/27 11:03:23;;;;;;;10.00;2.40;;;;;;;39.13;19.97;101200.26;108132;1288;21985;-57
2023/09/27 11:05:50;;;;;;;7.10;2.50;;;;;;;39.11;19.80;101201.97;108102;1288;21995;-58
2023/09/27 11:08:22;;;;;;;6.90;2.20;;;;;;;39.09;19.93;101193.69;108114;1283;22461;-66
2023/09/27 11:10:48;;;;;;;6.80;1.80;;;;;;;39.09;20.07;101187.84;108128;1287;21992;-58